Time;durP1;ratioP1;P1;durP2;ratioP2;P2;SDS_P1;SDS_P2;PMS_P1;PMS_P2;Temp;Humidity;BMP_temperature;BMP_pressure;BME280_temperature;BME280_humidity;BME280_pressure;Samples;Min_cycle;Max_cycle;Signal;HPM_P1;HPM_P2
2022/09/15 00:00:50;;;;;;;23.98;22.15;;;;;;;;;;10193013;28;20048;-69
2022/09/15 00:05:46;;;;;;;23.83;22.15;;;;;;;;;;10192609;28;20038;-69
2022/09/15 00:10:49;;;;;;;24.50;22.42;;;;;;;;;;10193215;28;20427;-69
2022/09/15 00:15:46;;;;;;;25.40;23.80;;;;;;;;;;10182696;28;20050;-69
2022/09/15 00:20:43;;;;;;;29.25;27.25;;;;;;;;;;10153497;28;20043;-70
2022/09/15 00:25:52;;;;;;;37.88;35.45;;;;;;;;;;10177564;28;20041;-69
2022/09/15 00:30:49;;;;;;;53.38;50.47;;;;;;;;;;10193020;28;20482;-69
2022/09/15 00:35:47;;;;;;;73.72;69.78;;;;;;;;;;10192086;28;20515;-69
2022/09/15 00:40:43;;;;;;;93.05;88.13;;;;;;;;;;10191276;28;20049;-69
2022/09/15 00:45:40;;;;;;;116.10;110.35;;;;;;;;;;10192820;28;20045;-69
2022/09/15 00:50:37;;;;;;;129.35;122.88;;;;;;;;;;10198328;28;20505;-69
2022/09/15 00:55:36;;;;;;;138.70;131.65;;;;;;;;;;10198967;28;20046;-70
2022/09/15 01:00:33;;;;;;;148.80;141.07;;;;;;;;;;10199252;28;20049;-69
2022/09/15 01:05:31;;;;;;;152.73;144.93;;;;;;;;;;10185997;28;20050;-69
2022/09/15 01:10:37;;;;;;;158.65;150.80;;;;;;;;;;10198268;28;20048;-70
2022/09/15 01:15:52;;;;;;;142.98;135.98;;;;;;;;;;10182685;28;20046;-69
2022/09/15 01:21:07;;;;;;;143.50;136.00;;;;;;;;;;10181028;28;20053;-70
2022/09/15 01:26:18;;;;;;;145.48;137.70;;;;;;;;;;10183190;28;20486;-69
2022/09/15 01:31:25;;;;;;;142.07;135.00;;;;;;;;;;10172530;28;20050;-69
2022/09/15 01:36:36;;;;;;;131.07;124.35;;;;;;;;;;10184980;28;20778;-69
2022/09/15 01:41:34;;;;;;;134.98;128.27;;;;;;;;;;10158653;28;20050;-69
2022/09/15 01:46:33;;;;;;;144.75;137.55;;;;;;;;;;10179927;28;20129;-69
2022/09/15 01:51:30;;;;;;;136.93;129.90;;;;;;;;;;10157929;28;20051;-70
2022/09/15 01:56:26;;;;;;;129.50;122.80;;;;;;;;;;10172935;28;20433;-69
2022/09/15 02:01:26;;;;;;;121.53;115.20;;;;;;;;;;10155727;28;20046;-69
2022/09/15 02:06:28;;;;;;;110.25;104.78;;;;;;;;;;10183945;28;20046;-69
2022/09/15 02:11:26;;;;;;;108.88;103.18;;;;;;;;;;10172478;28;20517;-69
2022/09/15 02:16:25;;;;;;;103.32;98.20;;;;;;;;;;10185964;28;20093;-69
2022/09/15 02:21:29;;;;;;;108.03;102.45;;;;;;;;;;10171193;28;20100;-69
2022/09/15 02:26:26;;;;;;;101.50;96.47;;;;;;;;;;10182198;28;20057;-70
2022/09/15 02:31:23;;;;;;;103.43;98.35;;;;;;;;;;10156656;28;20496;-70
2022/09/15 02:36:21;;;;;;;103.45;98.43;;;;;;;;;;10179841;28;20782;-70
2022/09/15 02:41:18;;;;;;;110.78;105.30;;;;;;;;;;10156566;28;20046;-70
2022/09/15 02:46:16;;;;;;;123.53;117.25;;;;;;;;;;10165375;28;20054;-70
2022/09/15 02:51:13;;;;;;;141.32;134.00;;;;;;;;;;10156168;28;20362;-70
2022/09/15 02:56:09;;;;;;;152.55;144.75;;;;;;;;;;10180156;28;20060;-70
2022/09/15 03:01:06;;;;;;;158.57;150.05;;;;;;;;;;10194104;28;20052;-70
2022/09/15 03:06:18;;;;;;;154.52;146.48;;;;;;;;;;10179294;28;20045;-70
2022/09/15 03:11:15;;;;;;;159.95;151.20;;;;;;;;;;10187270;28;20053;-70
2022/09/15 03:16:13;;;;;;;155.18;146.82;;;;;;;;;;10179952;28;20081;-70
2022/09/15 03:21:11;;;;;;;168.95;160.05;;;;;;;;;;10186325;28;20065;-70
2022/09/15 03:26:08;;;;;;;167.13;158.20;;;;;;;;;;10179191;28;20563;-70
2022/09/15 03:31:04;;;;;;;159.77;151.45;;;;;;;;;;10182993;28;20049;-70
2022/09/15 03:36:01;;;;;;;158.07;149.77;;;;;;;;;;10177731;28;20141;-70
2022/09/15 03:41:09;;;;;;;153.57;145.18;;;;;;;;;;10164475;28;20542;-70
2022/09/15 03:46:06;;;;;;;158.32;149.68;;;;;;;;;;10169196;28;20042;-70
2022/09/15 03:51:02;;;;;;;145.90;137.73;;;;;;;;;;10153736;28;20042;-70
2022/09/15 03:56:16;;;;;;;141.07;133.18;;;;;;;;;;10177454;28;20554;-71
2022/09/15 04:01:12;;;;;;;142.95;134.90;;;;;;;;;;10178048;28;20042;-70
2022/09/15 04:06:08;;;;;;;143.43;135.00;;;;;;;;;;10177201;28;20073;-70
2022/09/15 04:11:05;;;;;;;144.73;136.18;;;;;;;;;;10191815;28;20042;-70
2022/09/15 04:16:03;;;;;;;148.20;139.25;;;;;;;;;;10177226;28;20132;-70
2022/09/15 04:21:00;;;;;;;152.20;143.07;;;;;;;;;;10174810;28;20047;-69
2022/09/15 04:25:57;;;;;;;153.45;144.55;;;;;;;;;;10183741;28;20052;-69
2022/09/15 04:31:01;;;;;;;148.93;139.68;;;;;;;;;;10183199;28;20038;-70
2022/09/15 04:35:58;;;;;;;142.85;134.27;;;;;;;;;;10184410;28;20115;-70
2022/09/15 04:40:55;;;;;;;146.10;137.30;;;;;;;;;;10164237;28;20034;-69
2022/09/15 04:45:51;;;;;;;145.73;136.90;;;;;;;;;;10182741;28;20507;-70
2022/09/15 04:50:47;;;;;;;141.30;132.77;;;;;;;;;;10163373;28;20046;-69
2022/09/15 04:55:43;;;;;;;144.98;136.48;;;;;;;;;;10181594;28;20061;-70
2022/09/15 05:00:42;;;;;;;144.70;135.73;;;;;;;;;;10174462;28;20688;-69
2022/09/15 05:05:38;;;;;;;146.38;137.65;;;;;;;;;;10180238;28;20038;-69
2022/09/15 05:10:37;;;;;;;147.23;137.88;;;;;;;;;;10160114;28;20046;-70
2022/09/15 05:15:33;;;;;;;145.13;136.63;;;;;;;;;;10178585;28;20046;-69
2022/09/15 05:20:29;;;;;;;143.18;134.43;;;;;;;;;;10199524;28;20049;-69
2022/09/15 05:25:25;;;;;;;131.02;123.53;;;;;;;;;;10198602;28;20042;-69
2022/09/15 05:30:21;;;;;;;125.72;118.20;;;;;;;;;;10198904;28;20046;-69
2022/09/15 05:35:34;;;;;;;123.57;116.20;;;;;;;;;;10191096;28;20045;-69
2022/09/15 05:40:31;;;;;;;115.43;108.22;;;;;;;;;;10198629;28;20042;-69
2022/09/15 05:45:27;;;;;;;111.85;105.40;;;;;;;;;;10185087;28;20068;-70
2022/09/15 05:50:24;;;;;;;114.72;108.25;;;;;;;;;;10197716;28;20073;-70
2022/09/15 05:55:20;;;;;;;104.13;98.22;;;;;;;;;;10197387;28;20050;-70
2022/09/15 06:00:17;;;;;;;99.63;93.60;;;;;;;;;;10180782;28;20051;-70
2022/09/15 06:05:14;;;;;;;94.07;88.90;;;;;;;;;;10175152;28;20054;-69
2022/09/15 06:10:10;;;;;;;93.18;87.53;;;;;;;;;;10196517;28;20050;-70
2022/09/15 06:15:06;;;;;;;88.43;83.07;;;;;;;;;;10197176;28;20056;-69
2022/09/15 06:20:05;;;;;;;78.35;73.72;;;;;;;;;;10175068;28;20511;-70
2022/09/15 06:25:02;;;;;;;81.82;76.43;;;;;;;;;;10172466;28;20053;-69
2022/09/15 06:29:58;;;;;;;69.82;65.28;;;;;;;;;;10157138;28;20424;-69
2022/09/15 06:34:54;;;;;;;71.03;66.72;;;;;;;;;;10170571;28;20053;-69
2022/09/15 06:39:51;;;;;;;76.78;72.15;;;;;;;;;;10196114;28;20405;-69
2022/09/15 06:44:47;;;;;;;69.22;64.63;;;;;;;;;;10194817;28;20046;-69
2022/09/15 06:49:43;;;;;;;63.92;60.05;;;;;;;;;;10195476;28;20459;-69
2022/09/15 06:54:39;;;;;;;86.53;81.22;;;;;;;;;;10195080;28;20057;-69
2022/09/15 06:59:36;;;;;;;97.35;91.57;;;;;;;;;;10195056;28;20044;-69
2022/09/15 07:04:33;;;;;;;117.15;110.80;;;;;;;;;;10194755;28;20038;-69
2022/09/15 07:09:30;;;;;;;118.15;111.45;;;;;;;;;;10194832;28;20060;-69
2022/09/15 07:14:26;;;;;;;111.70;105.10;;;;;;;;;;10177375;28;20050;-69
2022/09/15 07:19:22;;;;;;;115.38;108.93;;;;;;;;;;10194111;28;20046;-69
2022/09/15 07:24:18;;;;;;;124.10;117.32;;;;;;;;;;10167149;28;20671;-69
2022/09/15 07:29:15;;;;;;;107.90;101.85;;;;;;;;;;10178907;28;20050;-69
2022/09/15 07:34:11;;;;;;;81.45;77.00;;;;;;;;;;10163203;28;20050;-69
2022/09/15 07:39:07;;;;;;;59.47;55.75;;;;;;;;;;10193387;28;20044;-69
2022/09/15 07:44:05;;;;;;;53.97;50.72;;;;;;;;;;10194260;28;20792;-69
2022/09/15 07:49:02;;;;;;;47.92;44.90;;;;;;;;;;10192900;28;20431;-69
2022/09/15 07:53:59;;;;;;;49.72;46.53;;;;;;;;;;10194176;28;20077;-69
2022/09/15 07:58:55;;;;;;;44.80;41.70;;;;;;;;;;10192427;28;20420;-69
2022/09/15 08:03:51;;;;;;;35.03;32.78;;;;;;;;;;10192639;28;20046;-69
2022/09/15 08:08:49;;;;;;;39.17;36.45;;;;;;;;;;10192784;28;20503;-69
2022/09/15 08:13:47;;;;;;;31.48;29.17;;;;;;;;;;10192490;28;20042;-69
2022/09/15 08:18:43;;;;;;;32.03;29.75;;;;;;;;;;10192942;28;20054;-69
2022/09/15 08:23:39;;;;;;;28.30;26.30;;;;;;;;;;10192793;28;20049;-69
2022/09/15 08:28:36;;;;;;;27.65;25.65;;;;;;;;;;10192780;28;20427;-69
2022/09/15 08:33:32;;;;;;;25.88;23.75;;;;;;;;;;10192506;28;20042;-69
2022/09/15 08:38:29;;;;;;;17.80;16.17;;;;;;;;;;10192398;28;20038;-69
2022/09/15 08:43:28;;;;;;;18.95;17.45;;;;;;;;;;10172308;28;20559;-69
2022/09/15 08:48:57;;;;;;;18.65;17.10;;;;;;;;;;10192201;28;20050;-69
2022/09/15 08:54:04;;;;;;;18.15;16.75;;;;;;;;;;10188439;28;20052;-69
2022/09/15 08:59:01;;;;;;;14.88;13.80;;;;;;;;;;10192049;28;20534;-69
2022/09/15 09:04:15;;;;;;;16.08;14.63;;;;;;;;;;10192606;28;20044;-69
2022/09/15 09:09:22;;;;;;;14.27;13.18;;;;;;;;;;10167881;28;20088;-69
2022/09/15 09:14:41;;;;;;;15.60;13.20;;;;;;;;;;10169536;28;20460;-69
2022/09/15 09:19:40;;;;;;;15.23;13.90;;;;;;;;;;10159099;28;20053;-69
2022/09/15 09:24:39;;;;;;;13.65;12.60;;;;;;;;;;10175593;28;20046;-69
2022/09/15 09:29:38;;;;;;;12.27;11.20;;;;;;;;;;10198358;28;20046;-69
2022/09/15 09:34:37;;;;;;;13.48;12.25;;;;;;;;;;10198275;28;20046;-69
2022/09/15 09:39:33;;;;;;;14.98;13.57;;;;;;;;;;10197858;28;20048;-70
2022/09/15 09:44:32;;;;;;;17.83;16.10;;;;;;;;;;10198459;28;20042;-69
2022/09/15 09:49:33;;;;;;;44.60;41.67;;;;;;;;;;10197262;28;20064;-70
2022/09/15 09:54:30;;;;;;;55.47;52.08;;;;;;;;;;10197474;28;20424;-69
2022/09/15 09:59:42;;;;;;;73.22;68.97;;;;;;;;;;10164849;28;20057;-69
2022/09/15 10:04:40;;;;;;;76.90;72.47;;;;;;;;;;10170105;28;20049;-69
2022/09/15 10:09:36;;;;;;;98.13;92.40;;;;;;;;;;10157354;28;20062;-69
2022/09/15 10:14:37;;;;;;;114.60;108.05;;;;;;;;;;10167553;28;20053;-70
2022/09/15 10:19:36;;;;;;;91.55;86.38;;;;;;;;;;10156039;28;20074;-70
2022/09/15 10:24:33;;;;;;;75.47;71.03;;;;;;;;;;10171416;28;20057;-70
2022/09/15 10:29:35;;;;;;;36.97;34.67;;;;;;;;;;10196230;28;20416;-70
2022/09/15 10:34:32;;;;;;;30.85;28.55;;;;;;;;;;10185525;28;20420;-69
2022/09/15 10:39:34;;;;;;;27.50;25.67;;;;;;;;;;10196137;28;20071;-69
2022/09/15 10:44:35;;;;;;;19.98;18.25;;;;;;;;;;10177190;28;20042;-69
2022/09/15 10:49:34;;;;;;;15.77;14.57;;;;;;;;;;10195661;28;20054;-69
2022/09/15 10:54:39;;;;;;;12.07;11.18;;;;;;;;;;10195322;28;20050;-69
2022/09/15 10:59:46;;;;;;;12.13;9.90;;;;;;;;;;10182280;28;20050;-69
2022/09/15 11:05:03;;;;;;;10.00;9.10;;;;;;;;;;10168757;28;20523;-69
2022/09/15 11:10:14;;;;;;;10.73;9.82;;;;;;;;;;10168644;28;20054;-69
2022/09/15 11:15:33;;;;;;;12.63;9.77;;;;;;;;;;10171353;28;20527;-69
2022/09/15 11:20:48;;;;;;;10.05;9.23;;;;;;;;;;10193678;28;20049;-69
2022/09/15 11:25:48;;;;;;;9.70;8.77;;;;;;;;;;10177570;28;20432;-69
2022/09/15 11:31:04;;;;;;;9.48;8.63;;;;;;;;;;10154371;28;20049;-69
2022/09/15 11:36:07;;;;;;;13.82;12.70;;;;;;;;;;10179521;28;20129;-69
2022/09/15 11:41:03;;;;;;;;;;;;;;;;;;10194591;28;20034;-69
2022/09/15 11:46:01;;;;;;;22.85;21.20;;;;;;;;;;10190268;28;19943;-70
2022/09/15 11:51:00;;;;;;;22.52;21.02;;;;;;;;;;10194145;28;20041;-70
2022/09/15 11:56:14;;;;;;;22.92;21.33;;;;;;;;;;10193306;28;20042;-70
2022/09/15 12:01:13;;;;;;;17.45;16.25;;;;;;;;;;10192979;28;20042;-70
2022/09/15 12:06:14;;;;;;;13.60;12.70;;;;;;;;;;10192955;28;20052;-69
2022/09/15 12:11:21;;;;;;;12.70;11.80;;;;;;;;;;10193309;28;20046;-69
2022/09/15 12:16:19;;;;;;;11.88;10.70;;;;;;;;;;10193325;28;20060;-69
2022/09/15 12:21:15;;;;;;;11.15;10.25;;;;;;;;;;10168019;28;20126;-70
2022/09/15 12:26:14;;;;;;;10.18;9.18;;;;;;;;;;10177954;28;20052;-69
2022/09/15 12:31:12;;;;;;;10.18;9.18;;;;;;;;;;10192723;28;20046;-69
2022/09/15 12:36:27;;;;;;;10.45;9.10;;;;;;;;;;10183929;28;20070;-70
2022/09/15 12:41:24;;;;;;;9.68;8.88;;;;;;;;;;10153499;28;20125;-69
2022/09/15 12:46:20;;;;;;;11.23;9.10;;;;;;;;;;10184800;28;20066;-69
2022/09/15 12:51:21;;;;;;;9.25;8.20;;;;;;;;;;10200512;28;20100;-69
2022/09/15 12:56:25;;;;;;;8.77;8.18;;;;;;;;;;10199537;28;20046;-69
2022/09/15 13:01:21;;;;;;;8.57;7.85;;;;;;;;;;10200362;28;20077;-69
2022/09/15 13:06:18;;;;;;;7.40;6.78;;;;;;;;;;10198863;28;20117;-69
2022/09/15 13:11:35;;;;;;;9.05;8.38;;;;;;;;;;10199475;28;20046;-69
2022/09/15 13:16:36;;;;;;;9.38;7.82;;;;;;;;;;10199377;28;20133;-69
2022/09/15 13:21:34;;;;;;;10.13;7.85;;;;;;;;;;10199120;28;20053;-69
2022/09/15 13:26:30;;;;;;;8.18;7.40;;;;;;;;;;10198631;28;20042;-69
2022/09/15 13:31:29;;;;;;;8.63;7.80;;;;;;;;;;10179009;28;20126;-69
2022/09/15 13:36:44;;;;;;;8.10;7.30;;;;;;;;;;10185944;28;20049;-69
2022/09/15 13:42:15;;;;;;;10.82;9.27;;;;;;;;;;10197537;28;20054;-69
2022/09/15 13:47:20;;;;;;;14.77;13.68;;;;;;;;;;10197626;28;20061;-69
2022/09/15 13:52:22;;;;;;;20.98;19.50;;;;;;;;;;10198312;28;20052;-69
2022/09/15 13:57:18;;;;;;;26.87;25.17;;;;;;;;;;10191690;28;20046;-69
2022/09/15 14:02:34;;;;;;;23.08;21.38;;;;;;;;;;10185091;28;20096;-69
2022/09/15 14:07:31;;;;;;;16.33;15.05;;;;;;;;;;10196828;28;20053;-69
2022/09/15 14:12:27;;;;;;;12.90;11.77;;;;;;;;;;10196654;28;20049;-69
2022/09/15 14:17:25;;;;;;;12.05;11.10;;;;;;;;;;10196444;28;20046;-69
2022/09/15 14:22:22;;;;;;;11.57;10.50;;;;;;;;;;10196547;28;20042;-69
2022/09/15 14:27:20;;;;;;;9.02;8.23;;;;;;;;;;10195946;28;20056;-69
2022/09/15 14:32:17;;;;;;;11.13;10.07;;;;;;;;;;10197085;28;20042;-69
2022/09/15 14:37:18;;;;;;;10.30;9.30;;;;;;;;;;10195897;28;20045;-69
2022/09/15 14:42:20;;;;;;;10.25;9.27;;;;;;;;;;10196134;28;20462;-69
2022/09/15 14:47:18;;;;;;;10.45;9.55;;;;;;;;;;10194751;28;20046;-69
2022/09/15 14:52:22;;;;;;;11.65;10.55;;;;;;;;;;10195756;28;20450;-69
2022/09/15 14:57:19;;;;;;;12.35;11.27;;;;;;;;;;10195004;28;20053;-70
2022/09/15 15:02:21;;;;;;;11.27;10.38;;;;;;;;;;10195728;28;20042;-69
2022/09/15 15:07:26;;;;;;;12.77;11.70;;;;;;;;;;10193894;28;20452;-69
2022/09/15 15:12:25;;;;;;;12.98;12.07;;;;;;;;;;10195554;28;20136;-69
2022/09/15 15:17:32;;;;;;;15.30;14.10;;;;;;;;;;10194484;28;20412;-69
2022/09/15 15:22:28;;;;;;;13.65;12.65;;;;;;;;;;10195102;28;20046;-69
2022/09/15 15:27:24;;;;;;;13.68;12.68;;;;;;;;;;10193929;28;20057;-69
2022/09/15 15:32:23;;;;;;;13.50;12.60;;;;;;;;;;10194364;28;20041;-69
2022/09/15 15:37:30;;;;;;;12.82;11.82;;;;;;;;;;10194110;28;20042;-69
2022/09/15 15:42:27;;;;;;;12.88;11.75;;;;;;;;;;10193960;28;20057;-69
2022/09/15 15:47:24;;;;;;;15.30;13.88;;;;;;;;;;10192492;28;20100;-69
2022/09/15 15:52:20;;;;;;;14.38;13.27;;;;;;;;;;10193552;28;20056;-69
2022/09/15 15:57:24;;;;;;;13.55;11.95;;;;;;;;;;10193216;28;20045;-69
2022/09/15 16:02:21;;;;;;;14.40;13.20;;;;;;;;;;10193094;28;20046;-69
2022/09/15 16:07:19;;;;;;;14.57;13.45;;;;;;;;;;10192945;28;20045;-69
2022/09/15 16:12:16;;;;;;;14.93;13.82;;;;;;;;;;10175368;28;20428;-69
2022/09/15 16:17:12;;;;;;;13.27;12.18;;;;;;;;;;10186431;28;20050;-69
2022/09/15 16:22:14;;;;;;;13.65;12.55;;;;;;;;;;10199938;28;20062;-69
2022/09/15 16:27:13;;;;;;;13.43;12.40;;;;;;;;;;10199451;28;20056;-69
2022/09/15 16:32:18;;;;;;;14.43;13.02;;;;;;;;;;10201428;28;20046;-69
2022/09/15 16:37:15;;;;;;;14.07;12.82;;;;;;;;;;10199734;28;20042;-69
2022/09/15 16:42:11;;;;;;;15.50;14.00;;;;;;;;;;10200399;28;20439;-69
2022/09/15 16:47:08;;;;;;;15.77;14.48;;;;;;;;;;10199846;28;20478;-69
2022/09/15 16:52:04;;;;;;;13.68;12.60;;;;;;;;;;10200599;28;20132;-69
2022/09/15 16:57:00;;;;;;;12.20;11.20;;;;;;;;;;10199293;28;20161;-69
2022/09/15 17:01:57;;;;;;;15.02;11.77;;;;;;;;;;10200572;28;20061;-68
2022/09/15 17:06:53;;;;;;;11.95;10.73;;;;;;;;;;10199083;28;20046;-69
2022/09/15 17:11:49;;;;;;;11.40;9.55;;;;;;;;;;10199739;28;20423;-69
2022/09/15 17:16:51;;;;;;;11.35;9.63;;;;;;;;;;10199147;28;20052;-69
2022/09/15 17:21:49;;;;;;;12.07;9.23;;;;;;;;;;10199109;28;20049;-69
2022/09/15 17:26:45;;;;;;;10.20;9.20;;;;;;;;;;10197441;28;20065;-69
2022/09/15 17:31:41;;;;;;;11.10;9.88;;;;;;;;;;10198048;28;20052;-69
2022/09/15 17:36:37;;;;;;;18.80;11.40;;;;;;;;;;10198308;28;20623;-68
2022/09/15 17:41:34;;;;;;;10.38;9.32;;;;;;;;;;10198144;28;20082;-69
2022/09/15 17:46:31;;;;;;;11.75;10.63;;;;;;;;;;10198089;28;20432;-69
2022/09/15 17:51:27;;;;;;;13.13;11.75;;;;;;;;;;10161602;28;20058;-69
2022/09/15 17:56:23;;;;;;;12.63;11.27;;;;;;;;;;10184341;28;20554;-69
2022/09/15 18:01:19;;;;;;;12.63;11.43;;;;;;;;;;10158394;28;20048;-69
2022/09/15 18:06:16;;;;;;;15.52;12.82;;;;;;;;;;10174220;28;20484;-69
2022/09/15 18:11:14;;;;;;;13.63;12.20;;;;;;;;;;10157951;28;20050;-69
2022/09/15 18:16:11;;;;;;;13.40;12.15;;;;;;;;;;10183115;28;20056;-69
2022/09/15 18:21:10;;;;;;;13.15;11.95;;;;;;;;;;10195954;28;20496;-69
2022/09/15 18:26:06;;;;;;;14.95;13.35;;;;;;;;;;10181372;28;20038;-69
2022/09/15 18:31:03;;;;;;;15.77;14.40;;;;;;;;;;10196281;28;20042;-69
2022/09/15 18:36:00;;;;;;;18.05;16.60;;;;;;;;;;10194815;28;20041;-69
2022/09/15 18:40:57;;;;;;;20.58;18.33;;;;;;;;;;10177210;28;20571;-69
2022/09/15 18:45:56;;;;;;;18.45;16.67;;;;;;;;;;10178325;28;20046;-69
2022/09/15 18:50:53;;;;;;;21.58;19.73;;;;;;;;;;10195373;28;20088;-69
2022/09/15 18:55:50;;;;;;;20.10;18.48;;;;;;;;;;10195779;28;20647;-69
2022/09/15 19:00:47;;;;;;;22.55;20.75;;;;;;;;;;10194846;28;20048;-69
2022/09/15 19:05:44;;;;;;;23.15;21.38;;;;;;;;;;10194592;28;20042;-69
2022/09/15 19:10:42;;;;;;;24.00;22.00;;;;;;;;;;10194837;28;20052;-69
2022/09/15 19:15:39;;;;;;;28.30;26.45;;;;;;;;;;10194211;28;20048;-69
2022/09/15 19:20:35;;;;;;;32.22;29.98;;;;;;;;;;10194994;28;20052;-69
2022/09/15 19:25:32;;;;;;;36.25;33.55;;;;;;;;;;10193575;28;20523;-69
2022/09/15 19:30:28;;;;;;;34.50;31.75;;;;;;;;;;10194088;28;20478;-69
2022/09/15 19:35:24;;;;;;;33.38;31.13;;;;;;;;;;10193013;28;20129;-69
2022/09/15 19:40:22;;;;;;;43.75;40.72;;;;;;;;;;10186383;28;20046;-69
2022/09/15 19:45:18;;;;;;;55.75;52.33;;;;;;;;;;10171888;28;20060;-69
2022/09/15 19:50:15;;;;;;;58.97;55.33;;;;;;;;;;10193680;28;20050;-69
2022/09/15 19:55:12;;;;;;;66.97;63.20;;;;;;;;;;10193614;28;20084;-69
2022/09/15 20:00:09;;;;;;;57.38;53.95;;;;;;;;;;10192624;28;20045;-69
2022/09/15 20:05:06;;;;;;;69.00;64.80;;;;;;;;;;10193286;28;20046;-69
2022/09/15 20:10:03;;;;;;;80.18;75.90;;;;;;;;;;10156230;28;20099;-69
2022/09/15 20:14:59;;;;;;;76.55;72.22;;;;;;;;;;10170199;28;20053;-68
2022/09/15 20:19:55;;;;;;;83.60;79.18;;;;;;;;;;10192925;28;20079;-69
2022/09/15 20:24:51;;;;;;;94.28;89.25;;;;;;;;;;10191855;28;20042;-69
2022/09/15 20:29:47;;;;;;;104.90;99.45;;;;;;;;;;10192848;28;20053;-69
2022/09/15 20:34:46;;;;;;;110.55;104.65;;;;;;;;;;10189181;28;20076;-69
2022/09/15 20:39:44;;;;;;;108.60;102.80;;;;;;;;;;10192595;28;20044;-69
2022/09/15 20:44:44;;;;;;;114.88;108.75;;;;;;;;;;10192378;28;20038;-68
2022/09/15 20:49:40;;;;;;;122.25;115.95;;;;;;;;;;10192474;28;20060;-68
2022/09/15 20:54:37;;;;;;;123.22;116.65;;;;;;;;;;10192186;28;20045;-68
2022/09/15 20:59:33;;;;;;;121.60;115.28;;;;;;;;;;10191605;28;20034;-68
2022/09/15 21:04:30;;;;;;;120.30;113.78;;;;;;;;;;10193120;28;20559;-68
2022/09/15 21:09:26;;;;;;;128.00;121.10;;;;;;;;;;10198445;28;20072;-68
2022/09/15 21:14:22;;;;;;;132.10;125.20;;;;;;;;;;10199486;28;20061;-68
2022/09/15 21:19:18;;;;;;;123.05;116.65;;;;;;;;;;10198358;28;20416;-68
2022/09/15 21:24:15;;;;;;;130.35;123.20;;;;;;;;;;10199156;28;20049;-68
2022/09/15 21:29:12;;;;;;;133.32;126.13;;;;;;;;;;10163069;28;20504;-68
2022/09/15 21:34:08;;;;;;;138.82;131.30;;;;;;;;;;10167884;28;20064;-69
2022/09/15 21:39:04;;;;;;;140.10;132.25;;;;;;;;;;10198270;28;20046;-68
2022/09/15 21:44:01;;;;;;;140.60;132.80;;;;;;;;;;10191005;28;20538;-69
2022/09/15 21:48:58;;;;;;;138.52;130.88;;;;;;;;;;10197673;28;20532;-69
2022/09/15 21:53:55;;;;;;;143.07;134.93;;;;;;;;;;10173802;28;20475;-68
2022/09/15 21:58:52;;;;;;;141.75;133.80;;;;;;;;;;10197544;28;20052;-69
2022/09/15 22:03:50;;;;;;;136.63;128.98;;;;;;;;;;10196820;28;20038;-69
2022/09/15 22:08:46;;;;;;;143.73;135.40;;;;;;;;;;10196094;28;20057;-69
2022/09/15 22:13:43;;;;;;;146.55;137.65;;;;;;;;;;10171013;28;20069;-69
2022/09/15 22:18:40;;;;;;;145.93;137.25;;;;;;;;;;10188685;28;20054;-68
2022/09/15 22:23:36;;;;;;;150.45;141.38;;;;;;;;;;10161401;28;20049;-69
2022/09/15 22:28:33;;;;;;;147.30;138.65;;;;;;;;;;10195783;28;20062;-68
2022/09/15 22:33:29;;;;;;;145.75;137.23;;;;;;;;;;10196611;28;20053;-68
2022/09/15 22:38:26;;;;;;;150.50;141.18;;;;;;;;;;10195784;28;20049;-68
2022/09/15 22:43:23;;;;;;;149.75;141.27;;;;;;;;;;10196266;28;20073;-68
2022/09/15 22:48:19;;;;;;;142.05;133.85;;;;;;;;;;10195309;28;20056;-68
2022/09/15 22:53:15;;;;;;;148.00;139.52;;;;;;;;;;10194998;28;20050;-68
2022/09/15 22:58:11;;;;;;;147.07;138.27;;;;;;;;;;10155373;28;20053;-68
2022/09/15 23:03:08;;;;;;;148.75;140.05;;;;;;;;;;10170986;28;20050;-68
2022/09/15 23:08:05;;;;;;;148.77;140.38;;;;;;;;;;10194719;28;20041;-68
2022/09/15 23:13:01;;;;;;;140.65;132.93;;;;;;;;;;10164275;28;20054;-68
2022/09/15 23:17:57;;;;;;;140.03;131.63;;;;;;;;;;10194603;28;20042;-68
2022/09/15 23:22:53;;;;;;;137.48;129.40;;;;;;;;;;10159094;28;20038;-68
2022/09/15 23:27:50;;;;;;;145.15;137.25;;;;;;;;;;10192237;28;20052;-68
2022/09/15 23:32:46;;;;;;;142.18;134.38;;;;;;;;;;10193293;28;20699;-68
2022/09/15 23:37:42;;;;;;;138.50;130.50;;;;;;;;;;10180017;28;20526;-68
2022/09/15 23:42:39;;;;;;;144.48;136.65;;;;;;;;;;10153907;28;20043;-68
2022/09/15 23:47:35;;;;;;;139.00;131.30;;;;;;;;;;10167505;28;20516;-68
2022/09/15 23:52:31;;;;;;;137.30;129.82;;;;;;;;;;10154557;28;20054;-68
2022/09/15 23:57:28;;;;;;;137.15;129.48;;;;;;;;;;10160930;28;20072;-68
